الصفحة الرئيسية
METAR-TAF:

METAR-TAF

مطار :

مطار ديوري حماني

نيامي, النيجر

دائرة عرض: 13-29N, خط طول: 002-10E, ارتفاع: 223 متر

مراقبة الطقس الحالي

تاريخ ووقت الإصدار 52 دقيقة قبل الساعة 00:00UTC
ريح 4 عقدة من الغرب/الجنوب الغربي
درجة الحرارة 31°درجة مئوية
الرطوبة 49%
ضغط 1012 hPa
الرؤية 10 كم أو أكثر
الغيوم لا تقل 1500 م ولا وجود لمزنة ركامية السحاب الأسود

METAR: DRRN 170000Z 24004KT CAVOK 31/19 Q1012 NOSIG

زمن: 01:52 (00:52 UTC)

توقعات

تاريخ ووقت الإصدار 1ساعة و 52 دقيقة قبل الساعة 23:00UTC
التوقعات صالحة من17 الساعة 00 UTC إلى 18 الساعة 06 UTC
ريح 6 عقدة من الجنوب الغربي
الرؤية 10 كم أو أكثر
الغيوم لا تقل 1500 م ولا وجود لمزنة ركامية السحاب الأسود
نظرية الاحتمالات 40% :
مؤقت
من 17 الساعة 03 UTC إلى 17 الساعة 19 UTC
ريح 30 عقدة من الجنوب الشرقي
الرؤية: 1200 متر
غيوم متفرقة على ارتفاع 3000 قدم
غيوم قليلة على ارتفاع 4000 قدم, مزنة ركامية.
هبوب الغبار, عاصفة رعدية, مطر خفيف

TAF: DRRN 162300Z 1700/1806 220006KT CAVOK PROB40 TEMPO 1703/1719 14030KT 1200 BLDU -TSRA SCT030 FEW040CB

أرصاد الطقس والتوقعات من أكثر من 4000 مطار (تقارير الطقس للمطار METAR والتنبؤ بالطقس بالمطارTAF).

المحطات المتاحة هي النقط الصفراء والحمراء على الخريطة.

حرك المؤشر فوق النقطة لمعرفة اسم المحطة.

ثم انقر لمعرفة أرصاد وتوقعات الطقس.

لتغيير الخارطة: اضغط على الأزرار الخضراء مع رمز الصليب الأسود للتكبير. على الزر الأخضر مع شرطة للتصغير، أو على الأسهم الخضراء للخرائط المجاورة.


METAR-TAF: